createdAt,value
2019-05-11T00:01:27.630Z,100252.75
2019-05-11T00:03:57.087Z,100251.09
2019-05-11T00:06:26.691Z,100250.80
2019-05-11T00:08:59.529Z,100251.53
2019-05-11T00:11:28.950Z,100245.66
2019-05-11T00:13:58.517Z,100249.67
2019-05-11T00:16:28.047Z,100258.57
2019-05-11T00:18:57.683Z,100244.63
2019-05-11T00:21:27.118Z,100239.80
2019-05-11T00:23:56.741Z,100243.48
2019-05-11T00:26:26.594Z,100243.38
2019-05-11T00:28:56.157Z,100249.75
2019-05-11T00:31:26.890Z,100263.19
2019-05-11T00:33:56.400Z,100270.36
2019-05-11T00:36:25.871Z,100267.21
2019-05-11T00:38:57.704Z,100253.87
2019-05-11T00:41:27.314Z,100244.14
2019-05-11T00:43:56.924Z,100237.36
2019-05-11T00:46:26.316Z,100239.02
2019-05-11T00:48:55.679Z,100249.68
2019-05-11T00:51:25.250Z,100256.75
2019-05-11T00:53:54.811Z,100260.76
2019-05-11T00:56:24.289Z,100260.73
2019-05-11T00:58:53.864Z,100251.51
2019-05-11T01:01:23.791Z,100242.97
2019-05-11T01:03:53.195Z,100247.80
2019-05-11T01:06:23.087Z,100247.88
2019-05-11T01:08:52.623Z,100250.14
2019-05-11T01:11:22.101Z,100252.05
2019-05-11T01:13:51.554Z,100250.43
2019-05-11T01:16:21.388Z,100247.27
2019-05-11T01:18:50.847Z,100251.55
2019-05-11T01:21:20.263Z,100250.58
2019-05-11T01:23:49.811Z,100245.23
2019-05-11T01:26:19.217Z,100249.16
2019-05-11T01:28:48.735Z,100249.17
2019-05-11T01:31:18.251Z,100238.91
2019-05-11T01:33:47.725Z,100231.54
2019-05-11T01:36:17.109Z,100230.41
2019-05-11T01:38:46.575Z,100238.70
2019-05-11T01:41:16.131Z,100234.80
2019-05-11T01:43:45.578Z,100237.37
2019-05-11T01:46:15.069Z,100239.42
2019-05-11T01:48:44.819Z,100251.94
2019-05-11T01:51:14.240Z,100247.42
2019-05-11T01:53:43.670Z,100250.20
2019-05-11T01:56:13.084Z,100238.30
2019-05-11T01:58:42.596Z,100241.89
2019-05-11T02:01:12.130Z,100241.17
2019-05-11T02:03:41.510Z,100241.78
2019-05-11T02:06:10.847Z,100240.95
2019-05-11T02:08:40.326Z,100239.11
2019-05-11T02:11:16.060Z,100242.09
2019-05-11T02:13:40.876Z,100236.26
2019-05-11T02:16:10.370Z,100246.71
2019-05-11T02:18:39.715Z,100239.03
2019-05-11T02:21:09.095Z,100240.64
2019-05-11T02:23:38.489Z,100239.92
2019-05-11T02:26:07.968Z,100244.24
2019-05-11T02:28:37.428Z,100243.23
2019-05-11T02:31:06.898Z,100248.95
2019-05-11T02:33:36.323Z,100245.27
2019-05-11T02:36:05.752Z,100244.55
2019-05-11T02:38:35.183Z,100241.05
2019-05-11T02:41:04.659Z,100248.04
2019-05-11T02:43:33.994Z,100240.86
2019-05-11T02:46:03.351Z,100233.14
2019-05-11T02:48:33.040Z,100227.42
2019-05-11T02:51:02.637Z,100223.83
2019-05-11T02:53:33.621Z,100217.78
2019-05-11T02:56:03.157Z,100222.70
2019-05-11T02:58:32.668Z,100227.83
2019-05-11T03:01:02.021Z,100229.06
2019-05-11T03:03:31.493Z,100232.45
2019-05-11T03:06:00.852Z,100234.61
2019-05-11T03:08:30.511Z,100230.08
2019-05-11T03:10:59.912Z,100231.95
2019-05-11T03:13:29.347Z,100228.95
2019-05-11T03:15:58.935Z,100230.30
2019-05-11T03:18:28.500Z,100226.09
2019-05-11T03:20:58.094Z,100226.59
2019-05-11T03:23:27.583Z,100229.77
2019-05-11T03:25:57.092Z,100229.48
2019-05-11T03:28:26.639Z,100236.16
2019-05-11T03:30:56.199Z,100240.44
2019-05-11T03:33:25.622Z,100241.77
2019-05-11T03:35:54.997Z,100252.44
2019-05-11T03:38:25.413Z,100243.83
2019-05-11T03:40:54.750Z,100238.50
2019-05-11T03:43:24.267Z,100241.38
2019-05-11T03:45:53.709Z,100241.38
2019-05-11T03:48:23.285Z,100244.16
2019-05-11T03:50:52.734Z,100241.67
2019-05-11T03:53:22.147Z,100241.38
2019-05-11T03:55:51.627Z,100238.07
2019-05-11T03:58:25.511Z,100246.61
2019-05-11T04:00:52.292Z,100249.97
2019-05-11T04:03:21.779Z,100244.86
2019-05-11T04:05:51.253Z,100246.41
2019-05-11T04:08:20.573Z,100246.91
2019-05-11T04:10:50.043Z,100248.64
2019-05-11T04:13:19.419Z,100254.70
2019-05-11T04:15:48.819Z,100251.93
2019-05-11T04:18:18.300Z,100253.27
2019-05-11T04:20:47.788Z,100255.93
2019-05-11T04:23:17.168Z,100250.37
2019-05-11T04:25:46.689Z,100254.80
2019-05-11T04:28:16.154Z,100260.03
2019-05-11T04:30:45.557Z,100257.89
2019-05-11T04:33:14.948Z,100259.75
2019-05-11T04:35:44.340Z,100258.63
2019-05-11T04:38:13.717Z,100260.45
2019-05-11T04:40:43.252Z,100256.66
2019-05-11T04:43:12.622Z,100255.53
2019-05-11T04:45:42.049Z,100258.31
2019-05-11T04:48:11.526Z,100259.22
2019-05-11T04:50:40.966Z,100255.83
2019-05-11T04:53:10.598Z,100251.73
2019-05-11T04:55:40.018Z,100258.00
2019-05-11T04:58:09.418Z,100256.66
2019-05-11T05:00:38.901Z,100252.12
2019-05-11T05:03:08.340Z,100247.09
2019-05-11T05:05:37.864Z,100246.47
2019-05-11T05:08:09.915Z,100253.66
2019-05-11T05:10:38.598Z,100252.19
2019-05-11T05:13:10.728Z,100256.10
2019-05-11T05:15:39.274Z,100251.23
2019-05-11T05:18:08.719Z,100256.67
2019-05-11T05:20:38.323Z,100253.74
2019-05-11T05:23:07.717Z,100257.23
2019-05-11T05:25:37.172Z,100262.62
2019-05-11T05:28:06.550Z,100261.66
2019-05-11T05:30:35.953Z,100269.22
2019-05-11T05:33:05.745Z,100265.06
2019-05-11T05:35:35.396Z,100276.58
2019-05-11T05:38:05.099Z,100263.97
2019-05-11T05:40:34.658Z,100266.98
2019-05-11T05:43:04.224Z,100279.72
2019-05-11T05:45:33.739Z,100279.55
2019-05-11T05:48:03.424Z,100281.39
2019-05-11T05:50:32.914Z,100287.45
2019-05-11T05:53:02.335Z,100293.96
2019-05-11T05:55:31.850Z,100289.28
2019-05-11T05:58:01.390Z,100296.85
2019-05-11T06:00:30.950Z,100291.37
2019-05-11T06:03:00.404Z,100297.55
2019-05-11T06:05:30.853Z,100302.02
2019-05-11T06:08:00.566Z,100307.92
2019-05-11T06:10:29.978Z,100307.06
2019-05-11T06:12:59.438Z,100303.63
2019-05-11T06:15:28.998Z,100302.17
2019-05-11T06:18:00.552Z,100300.83
2019-05-11T06:20:29.519Z,100306.27
2019-05-11T06:22:59.055Z,100301.19
2019-05-11T06:25:28.635Z,100296.49
2019-05-11T06:27:58.141Z,100292.94
2019-05-11T06:30:27.670Z,100296.08
2019-05-11T06:32:57.091Z,100293.91
2019-05-11T06:35:26.561Z,100297.41
2019-05-11T06:37:56.055Z,100298.28
2019-05-11T06:40:28.557Z,100299.92
2019-05-11T06:42:56.624Z,100303.40
2019-05-11T06:45:26.659Z,100300.48
2019-05-11T06:47:56.099Z,100302.72
2019-05-11T06:50:25.579Z,100312.09
2019-05-11T06:52:55.001Z,100315.69
2019-05-11T06:55:24.478Z,100312.58
2019-05-11T06:57:54.149Z,100314.50
2019-05-11T07:00:23.653Z,100317.70
2019-05-11T07:02:53.117Z,100318.80
2019-05-11T07:05:22.626Z,100320.17
2019-05-11T07:07:52.045Z,100318.71
2019-05-11T07:10:21.410Z,100312.81
2019-05-11T07:12:50.785Z,100319.46
2019-05-11T07:15:20.199Z,100319.90
2019-05-11T07:17:49.637Z,100316.16
2019-05-11T07:20:19.098Z,100325.19
2019-05-11T07:22:48.932Z,100322.19
2019-05-11T07:25:18.396Z,100332.27
2019-05-11T07:27:47.825Z,100336.34
2019-05-11T07:30:17.395Z,100340.09
2019-05-11T07:32:48.185Z,100337.41
2019-05-11T07:35:18.832Z,100340.84
2019-05-11T07:37:48.401Z,100332.88
2019-05-11T07:40:18.730Z,100336.45
2019-05-11T07:42:48.751Z,100338.41
2019-05-11T07:45:18.339Z,100330.84
2019-05-11T07:47:48.542Z,100328.85
2019-05-11T07:50:18.607Z,100327.16
2019-05-11T07:52:48.443Z,100335.98
2019-05-11T07:55:19.001Z,100333.96
2019-05-11T07:57:48.753Z,100335.83
2019-05-11T08:00:18.757Z,100341.91
2019-05-11T08:02:48.384Z,100340.52
2019-05-11T08:05:18.590Z,100337.25
2019-05-11T08:07:48.409Z,100339.13
2019-05-11T08:10:18.696Z,100350.09
2019-05-11T08:12:48.400Z,100352.28
2019-05-11T08:15:18.543Z,100362.27
2019-05-11T08:17:49.009Z,100362.16
2019-05-11T08:20:19.525Z,100369.49
2019-05-11T08:22:49.027Z,100375.93
2019-05-11T08:25:18.503Z,100377.47
2019-05-11T08:27:48.623Z,100380.56
2019-05-11T08:30:18.893Z,100377.03
2019-05-11T08:32:49.284Z,100381.52
2019-05-11T08:35:19.290Z,100380.61
2019-05-11T08:37:48.751Z,100385.92
2019-05-11T08:40:19.918Z,100390.11
2019-05-11T08:42:49.379Z,100382.87
2019-05-11T08:45:24.250Z,100391.50
2019-05-11T08:47:50.277Z,100398.95
2019-05-11T08:50:20.969Z,100404.52
2019-05-11T08:52:50.388Z,100401.28
2019-05-11T08:55:19.781Z,100412.91
2019-05-11T08:57:49.250Z,100420.70
2019-05-11T09:00:20.159Z,100407.73
2019-05-11T09:02:50.693Z,100410.47
2019-05-11T09:05:20.780Z,100415.30
2019-05-11T09:07:50.252Z,100418.92
2019-05-11T09:10:19.675Z,100417.87
2019-05-11T09:12:49.299Z,100421.86
2019-05-11T09:15:33.468Z,100427.22
2019-05-11T09:17:53.185Z,100429.92
2019-05-11T09:20:22.614Z,100430.00
2019-05-11T09:22:52.204Z,100439.06
2019-05-11T09:25:21.592Z,100439.31
2019-05-11T09:27:51.083Z,100446.56
2019-05-11T09:30:20.779Z,100442.23
2019-05-11T09:32:50.237Z,100445.97
2019-05-11T09:35:19.730Z,100446.23
2019-05-11T09:37:49.153Z,100452.61
2019-05-11T09:40:18.788Z,100458.07
2019-05-11T09:42:48.300Z,100468.38
2019-05-11T09:45:18.692Z,100469.37
2019-05-11T09:47:50.807Z,100467.41
2019-05-11T09:50:20.465Z,100480.25
2019-05-11T09:52:49.824Z,100486.81
2019-05-11T09:55:19.444Z,100485.89
2019-05-11T09:57:49.042Z,100495.06
2019-05-11T10:00:18.778Z,100499.67
2019-05-11T10:02:48.851Z,100494.98
2019-05-11T10:05:19.113Z,100495.19
2019-05-11T10:07:48.719Z,100497.03
2019-05-11T10:10:18.850Z,100495.80
2019-05-11T10:12:52.319Z,100502.50
2019-05-11T10:15:20.495Z,100499.86
2019-05-11T10:17:49.973Z,100503.77
2019-05-11T10:20:19.368Z,100505.42
2019-05-11T10:22:48.935Z,100506.56
2019-05-11T10:25:18.521Z,100515.94
2019-05-11T10:27:48.859Z,100515.86
2019-05-11T10:30:19.488Z,100523.63
2019-05-11T10:32:49.223Z,100525.10
2019-05-11T10:35:18.755Z,100535.14
2019-05-11T10:37:50.201Z,100533.97
2019-05-11T10:40:19.760Z,100536.49
2019-05-11T10:42:49.184Z,100550.78
2019-05-11T10:45:18.734Z,100547.20
2019-05-11T10:47:48.966Z,100542.66
2019-05-11T10:50:19.021Z,100552.14
2019-05-11T10:52:48.715Z,100545.37
2019-05-11T10:55:19.296Z,100559.95
2019-05-11T10:57:49.230Z,100554.77
2019-05-11T11:00:19.111Z,100566.94
2019-05-11T11:02:48.606Z,100567.16
2019-05-11T11:05:18.909Z,100574.59
2019-05-11T11:07:48.661Z,100568.33
2019-05-11T11:10:18.446Z,100566.86
2019-05-11T11:12:48.960Z,100572.72
2019-05-11T11:15:18.879Z,100580.02
2019-05-11T11:17:48.710Z,100571.20
2019-05-11T11:20:18.956Z,100579.29
2019-05-11T11:22:48.601Z,100577.59
2019-05-11T11:25:18.237Z,100582.10
2019-05-11T11:27:48.733Z,100581.30
2019-05-11T11:30:18.915Z,100587.36
2019-05-11T11:32:48.535Z,100601.48
2019-05-11T11:35:18.711Z,100605.02
2019-05-11T11:37:48.549Z,100609.72
2019-05-11T11:40:18.377Z,100605.28
2019-05-11T11:42:48.025Z,100608.15
2019-05-11T11:45:18.419Z,100613.36
2019-05-11T11:47:49.288Z,100624.44
2019-05-11T11:50:19.032Z,100617.89
2019-05-11T11:52:48.593Z,100621.96
2019-05-11T11:55:18.700Z,100617.91
2019-05-11T11:57:50.317Z,100627.28
2019-05-11T12:00:20.330Z,100627.33
2019-05-11T12:02:49.827Z,100628.69
2019-05-11T12:05:19.330Z,100628.67
2019-05-11T12:07:49.180Z,100630.50
2019-05-11T12:10:18.881Z,100628.45
2019-05-11T12:12:48.354Z,100634.13
2019-05-11T12:15:17.979Z,100630.05
2019-05-11T12:17:48.339Z,100643.36
2019-05-11T12:20:18.309Z,100641.23
2019-05-11T12:22:47.869Z,100644.67
2019-05-11T12:25:18.556Z,100638.98
2019-05-11T12:27:49.166Z,100646.06
2019-05-11T12:30:18.863Z,100645.05
2019-05-11T12:32:50.040Z,100645.69
2019-05-11T12:35:19.522Z,100649.68
2019-05-11T12:37:48.976Z,100652.62
2019-05-11T12:40:18.554Z,100653.87
2019-05-11T12:42:49.041Z,100655.04
2019-05-11T12:45:18.788Z,100655.66
2019-05-11T12:47:48.674Z,100662.34
2019-05-11T12:50:20.152Z,100662.98
2019-05-11T12:52:49.683Z,100664.17
2019-05-11T12:55:19.501Z,100670.18
2019-05-11T12:57:48.922Z,100664.61
2019-05-11T13:00:18.428Z,100668.15
2019-05-11T13:02:48.541Z,100664.31
2019-05-11T13:05:18.430Z,100671.48
2019-05-11T13:07:49.856Z,100677.30
2019-05-11T13:10:19.289Z,100682.09
2019-05-11T13:12:49.431Z,100687.94
2019-05-11T13:15:19.679Z,100687.73
2019-05-11T13:17:49.421Z,100693.02
2019-05-11T13:20:18.820Z,100695.71
2019-05-11T13:22:49.043Z,100691.92
2019-05-11T13:25:18.567Z,100702.88
2019-05-11T13:27:49.255Z,100708.51
2019-05-11T13:30:19.111Z,100708.63
2019-05-11T13:32:51.666Z,100711.98
2019-05-11T13:35:21.183Z,100709.97
2019-05-11T13:37:50.663Z,100717.03
2019-05-11T13:40:20.279Z,100712.30
2019-05-11T13:42:49.840Z,100718.75
2019-05-11T13:45:19.464Z,100705.94
2019-05-11T13:47:54.754Z,100725.13
2019-05-11T13:50:20.205Z,100722.77
2019-05-11T13:52:49.596Z,100723.19
2019-05-11T13:55:19.149Z,100722.88
2019-05-11T13:57:48.808Z,100728.16
2019-05-11T14:00:18.416Z,100742.11
2019-05-11T14:02:48.669Z,100744.38
2019-05-11T14:05:18.378Z,100754.30
2019-05-11T14:07:48.339Z,100747.57
2019-05-11T14:10:18.369Z,100756.30
2019-05-11T14:12:48.137Z,100760.62
2019-05-11T14:15:19.042Z,100760.49
2019-05-11T14:18:04.375Z,100764.62
2019-05-11T14:20:20.810Z,100769.53
2019-05-11T14:22:50.421Z,100774.22
2019-05-11T14:25:19.980Z,100768.55
2019-05-11T14:27:49.417Z,100774.92
2019-05-11T14:30:19.305Z,100777.31
2019-05-11T14:32:48.934Z,100773.23
2019-05-11T14:35:18.953Z,100793.77
2019-05-11T14:37:48.848Z,100794.53
2019-05-11T14:40:18.605Z,100811.50
2019-05-11T14:42:48.999Z,100808.97
2019-05-11T14:45:19.020Z,100808.47
2019-05-11T14:47:48.978Z,100814.47
2019-05-11T14:50:18.938Z,100823.19
2019-05-11T14:52:49.154Z,100825.66
2019-05-11T14:55:19.696Z,100836.97
2019-05-11T14:57:49.181Z,100837.25
2019-05-11T15:00:18.806Z,100842.59
2019-05-11T15:02:49.777Z,100847.18
2019-05-11T15:05:20.850Z,100849.48
2019-05-11T15:07:52.654Z,100837.19
2019-05-11T15:10:22.150Z,100851.02
2019-05-11T15:12:51.551Z,100851.02
2019-05-11T15:15:21.090Z,100856.47
2019-05-11T15:17:50.606Z,100866.12
2019-05-11T15:20:21.685Z,100866.44
2019-05-11T15:22:51.181Z,100869.50
2019-05-11T15:25:20.624Z,100875.13
2019-05-11T15:27:50.000Z,100885.52
2019-05-11T15:30:19.958Z,100890.83
2019-05-11T15:32:49.459Z,100884.41
2019-05-11T15:35:19.200Z,100884.78
2019-05-11T15:37:48.932Z,100886.03
2019-05-11T15:40:19.562Z,100892.61
2019-05-11T15:42:49.024Z,100895.20
2019-05-11T15:45:20.646Z,100897.38
2019-05-11T15:47:50.196Z,100907.26
2019-05-11T15:50:19.918Z,100908.95
2019-05-11T15:52:49.383Z,100912.16
2019-05-11T15:55:19.959Z,100911.14
2019-05-11T15:57:49.331Z,100908.16
2019-05-11T16:00:19.270Z,100923.16
2019-05-11T16:02:49.220Z,100923.98
2019-05-11T16:05:19.758Z,100925.09
2019-05-11T16:07:49.595Z,100935.48
2019-05-11T16:10:19.425Z,100933.80
2019-05-11T16:12:49.170Z,100936.75
2019-05-11T16:15:19.744Z,100945.83
2019-05-11T16:17:49.777Z,100949.57
2019-05-11T16:20:19.523Z,100955.94
2019-05-11T16:22:49.018Z,100951.77
2019-05-11T16:25:20.152Z,100950.23
2019-05-11T16:27:49.739Z,100957.84
2019-05-11T16:30:21.507Z,100966.84
2019-05-11T16:32:51.471Z,100982.77
2019-05-11T16:35:21.013Z,100977.42
2019-05-11T16:37:50.507Z,100983.56
2019-05-11T16:40:21.131Z,100985.66
2019-05-11T16:42:50.698Z,100988.67
2019-05-11T16:45:23.761Z,100994.67
2019-05-11T16:47:52.225Z,101001.31
2019-05-11T16:50:21.624Z,101006.79
2019-05-11T16:52:51.050Z,101006.79
2019-05-11T16:55:20.441Z,101017.97
2019-05-11T16:57:49.827Z,101023.91
2019-05-11T17:00:19.322Z,101032.42
2019-05-11T17:02:49.338Z,101042.52
2019-05-11T17:05:26.445Z,101034.86
2019-05-11T17:07:50.121Z,101045.19
2019-05-11T17:10:19.603Z,101055.09
2019-05-11T17:12:49.220Z,101061.63
2019-05-11T17:15:19.226Z,101061.45
2019-05-11T17:17:49.200Z,101058.81
2019-05-11T17:20:19.501Z,101057.94
2019-05-11T17:22:49.073Z,101059.67
2019-05-11T17:25:19.549Z,101061.89
2019-05-11T17:27:49.387Z,101070.34
2019-05-11T17:30:19.893Z,101067.91
2019-05-11T17:32:50.124Z,101086.02
2019-05-11T17:35:19.973Z,101085.73
2019-05-11T17:37:49.407Z,101089.62
2019-05-11T17:40:23.091Z,101099.55
2019-05-11T17:42:53.483Z,101101.95
2019-05-11T17:45:21.488Z,101110.69
2019-05-11T17:47:50.878Z,101113.64
2019-05-11T17:50:20.384Z,101121.77
2019-05-11T17:52:49.899Z,101124.83
2019-05-11T17:55:19.469Z,101129.66
2019-05-11T17:57:50.418Z,101141.28
2019-05-11T18:00:21.885Z,101151.41
2019-05-11T18:02:51.409Z,101152.02
2019-05-11T18:05:20.808Z,101150.42
2019-05-11T18:07:50.261Z,101155.83
2019-05-11T18:10:19.764Z,101159.11
2019-05-11T18:12:49.904Z,101165.00
2019-05-11T18:15:19.349Z,101177.23
2019-05-11T18:17:49.045Z,101188.75
2019-05-11T18:20:22.023Z,101195.34
2019-05-11T18:22:49.902Z,101199.42
2019-05-11T18:25:19.358Z,101203.93
2019-05-11T18:27:48.771Z,101212.58
2019-05-11T18:30:18.193Z,101218.77
2019-05-11T18:32:49.135Z,101234.39
2019-05-11T18:35:19.691Z,101236.34
2019-05-11T18:37:49.327Z,101239.27
2019-05-11T18:40:19.045Z,101247.02
2019-05-11T18:42:49.236Z,101246.12
2019-05-11T18:45:19.307Z,101253.52
2019-05-11T18:47:49.313Z,101267.06
2019-05-11T18:50:29.830Z,101268.44
2019-05-11T18:52:50.646Z,101272.38
2019-05-11T18:55:20.130Z,101274.56
2019-05-11T18:57:49.559Z,101284.03
2019-05-11T19:00:19.267Z,101294.94
2019-05-11T19:02:49.666Z,101293.27
2019-05-11T19:05:19.393Z,101305.76
2019-05-11T19:07:48.972Z,101308.70
2019-05-11T19:10:18.365Z,101316.80
2019-05-11T19:12:48.798Z,101318.13
2019-05-11T19:15:19.251Z,101333.33
2019-05-11T19:17:49.482Z,101338.63
2019-05-11T19:20:19.209Z,101338.45
2019-05-11T19:22:48.711Z,101343.92
2019-05-11T19:25:18.537Z,101345.27
2019-05-11T19:27:50.580Z,101350.11
2019-05-11T19:30:19.872Z,101356.80
2019-05-11T19:32:49.388Z,101360.50
2019-05-11T19:35:21.155Z,101363.20
2019-05-11T19:37:50.052Z,101374.88
2019-05-11T19:40:19.443Z,101380.09
2019-05-11T19:42:55.317Z,101385.23
2019-05-11T19:45:24.894Z,101388.95
2019-05-11T19:47:54.412Z,101403.52
2019-05-11T19:50:23.769Z,101396.83
2019-05-11T19:52:53.254Z,101397.86
2019-05-11T19:55:22.710Z,101401.59
2019-05-11T19:57:52.234Z,101412.34
2019-05-11T20:00:21.669Z,101417.39
2019-05-11T20:02:51.143Z,101422.00
2019-05-11T20:05:20.548Z,101435.39
2019-05-11T20:07:49.903Z,101444.20
2019-05-11T20:10:19.400Z,101446.64
2019-05-11T20:12:49.148Z,101456.18
2019-05-11T20:15:19.183Z,101452.70
2019-05-11T20:17:49.198Z,101458.70
2019-05-11T20:20:18.941Z,101463.23
2019-05-11T20:22:49.109Z,101472.45
2019-05-11T20:25:21.671Z,101468.84
2019-05-11T20:27:51.073Z,101478.16
2019-05-11T20:30:20.542Z,101481.50
2019-05-11T20:32:50.090Z,101483.83
2019-05-11T20:35:20.548Z,101491.56
2019-05-11T20:37:49.982Z,101498.10
2019-05-11T20:40:19.444Z,101494.80
2019-05-11T20:42:48.984Z,101504.95
2019-05-11T20:45:18.995Z,101511.45
2019-05-11T20:47:49.167Z,101520.12
2019-05-11T20:50:18.827Z,101518.59
2019-05-11T20:52:49.107Z,101530.10
2019-05-11T20:55:18.666Z,101537.61
2019-05-11T20:57:48.718Z,101548.10
2019-05-11T21:00:19.666Z,101548.59
2019-05-11T21:02:49.317Z,101557.25
2019-05-11T21:05:18.953Z,101555.27
2019-05-11T21:07:48.390Z,101560.61
2019-05-11T21:10:17.950Z,101559.95
2019-05-11T21:12:47.412Z,101564.77
2019-05-11T21:15:18.042Z,101568.25
2019-05-11T21:17:48.152Z,101579.09
2019-05-11T21:20:18.691Z,101577.23
2019-05-11T21:22:48.829Z,101577.52
2019-05-11T21:25:18.859Z,101588.02
2019-05-11T21:27:48.857Z,101597.16
2019-05-11T21:30:18.754Z,101597.62
2019-05-11T21:32:48.315Z,101602.74
2019-05-11T21:35:19.296Z,101603.37
2019-05-11T21:37:48.990Z,101604.00
2019-05-11T21:40:18.419Z,101604.08
2019-05-11T21:42:47.876Z,101607.94
2019-05-11T21:45:18.281Z,101616.63
2019-05-11T21:47:49.007Z,101610.82
2019-05-11T21:50:19.253Z,101610.33
2019-05-11T21:52:48.796Z,101620.84
2019-05-11T21:55:18.263Z,101622.66
2019-05-11T21:57:49.832Z,101632.14
2019-05-11T22:00:19.117Z,101638.27
2019-05-11T22:02:48.754Z,101641.23
2019-05-11T22:05:20.887Z,101653.16
2019-05-11T22:07:50.248Z,101646.38
2019-05-11T22:10:19.882Z,101646.44
2019-05-11T22:12:49.289Z,101641.91
2019-05-11T22:15:18.860Z,101645.49
2019-05-11T22:17:48.533Z,101650.16
2019-05-11T22:20:19.292Z,101648.38
2019-05-11T22:22:48.747Z,101654.53
2019-05-11T22:25:18.547Z,101656.35
2019-05-11T22:27:48.829Z,101663.05
2019-05-11T22:30:18.853Z,101665.33
2019-05-11T22:32:48.392Z,101664.77
2019-05-11T22:35:18.418Z,101664.53
2019-05-11T22:37:48.949Z,101673.27
2019-05-11T22:40:18.992Z,101677.97
2019-05-11T22:42:48.460Z,101673.36
2019-05-11T22:45:18.817Z,101677.02
2019-05-11T22:47:48.391Z,101684.41
2019-05-11T22:50:18.592Z,101680.53
2019-05-11T22:52:48.589Z,101682.62
2019-05-11T22:55:18.913Z,101684.87
2019-05-11T22:57:48.932Z,101691.72
2019-05-11T23:00:29.069Z,101699.88
2019-05-11T23:02:58.803Z,101702.33
2019-05-11T23:05:29.968Z,101704.63
2019-05-11T23:07:59.507Z,101705.22
2019-05-11T23:10:29.295Z,101706.48
2019-05-11T23:12:58.866Z,101709.53
2019-05-11T23:15:28.395Z,101716.49
2019-05-11T23:17:59.948Z,101716.78
2019-05-11T23:20:30.207Z,101721.87
2019-05-11T23:23:01.663Z,101728.06
2019-05-11T23:25:30.928Z,101728.51
2019-05-11T23:28:00.450Z,101741.98
2019-05-11T23:30:29.932Z,101739.75
2019-05-11T23:32:59.403Z,101742.47
2019-05-11T23:35:29.450Z,101743.44
2019-05-11T23:37:58.997Z,101747.10
2019-05-11T23:40:28.612Z,101748.47
2019-05-11T23:42:58.133Z,101753.43
2019-05-11T23:45:28.155Z,101763.84
2019-05-11T23:47:58.847Z,101768.93
2019-05-11T23:50:28.495Z,101774.08
2019-05-11T23:53:06.428Z,101776.13
2019-05-11T23:55:29.252Z,101776.45
2019-05-11T23:57:58.709Z,101774.63
